Hlavní strana
METAR-TAF:

METAR-TAF

Letiště :

Lawrenceville-Vincennes International Airport

Lawrenceville, Illinois, Spojené státy americké

zeměpisná šířka: 38-45-38N, zeměpisná délka: 087-35-56W, výška: 131 m

Aktuální stav počasí

Zpráva byla vytvořena před 25 minutami, v 07:53 UTC
Jihozápadní vítr 16 kt s nárazy do 23 kt
Teplota 18°C
Vlhkost vzduchu 77%
Tlak 1004 hPa
Viditelnost: 16.1 km
Jasno

METAR: KLWV 290753Z AUTO 23016G23KT 10SM CLR 18/14 A2964 RMK AO2 SLP033 T01830144 $

Čas: 03:18 (08:18 UTC)


TAF: chybějící

Stav a předpovědi počasí z více než 4 000 letišť (zprávy METAR a TAF).

Červené a žluté tečky na mapě představují dostupné meteorologické stanice.

Když kurzor umístíte na tečku, zobrazí se název stanice.

Pak kliknutím zobrazíte stav a předpověď počasí.

Chcete-li změnit mapu, kliknutím na zelené tlačítko se znaménkem +mapu přiblížíte, kliknutím na zelené tlačítko se znaménkem – mapu oddálíte a kliknutím na zelené šipky přejdete na sousední mapy.


METAR-TAF: